Edzard Schulte — 2CVX9 — position and weather

sailwx.info

Track history (hours):
 
Tides and Currents Weather Stations Pressure Air Temp Water Temp Dewpoint Dewpoint Depression Visibility Wind Speed Wind Dir Waves Ship Positions

Edzard Schulte

Last reported at 2018-Mar-18 19:02 UTC. Time now 2018-Apr-20 03:03 UTC.
Position N 18°53' E 071°29'.
Warning: this ship's position is 32 days out of date.

Length 145 m; draft 8.5 m.

Type: Tanker. MMSI: 235076245.

Date/timePositionNaut miles runAvg speedWind from/ knotsBaromVisibWave heightAir tempDewpointWater temp
2018-Mar-18 19:02N 18°53' E 071°29'5213.4
2018-Mar-18 15:10N 18°52' E 072°24'213.8
2018-Mar-18 15:01N 18°51' E 072°26'  
2018-Mar-13 16:22N 18°50' E 072°47'1810.6
2018-Mar-13 14:40N 18°60' E 072°30'312.5
2018-Mar-13 14:24N 19°03' E 072°29'11 3.6
2018-Mar-13 11:24N 18°53' E 072°33'611.4
2018-Mar-13 10:53N 18°51' E 072°26'613.3
2018-Mar-13 10:26N 18°52' E 072°20'813.0
2018-Mar-13 09:47N 18°53' E 072°11'512.9
2018-Mar-13 09:22N 18°52' E 072°06'513.0
2018-Mar-13 08:58N 18°52' E 072°00'612.9
2018-Mar-13 08:30N 18°52' E 071°54'712.8
2018-Mar-13 07:58N 18°52' E 071°47'612.7
2018-Mar-13 07:30N 18°53' E 071°40'712.8
2018-Mar-13 06:57N 18°52' E 071°33'613.0
2018-Mar-13 06:30N 18°53' E 071°27'713.0
2018-Mar-13 05:59N 18°53' E 071°20'612.9
2018-Mar-13 05:30N 18°53' E 071°13'713.1
2018-Mar-13 04:58N 18°53' E 071°06'3013.2
2018-Mar-13 02:41N 18°48' E 070°34'  
Track history (hours):
 
Tides and Currents Weather Stations Pressure Air Temp Water Temp Dewpoint Dewpoint Depression Visibility Wind Speed Wind Dir Waves Ship Positions

Edzard Schulte

Last reported at 2018-Mar-18 19:02 UTC. Time now 2018-Apr-20 03:03 UTC.
Position N 18°53' E 071°29'.
Warning: this ship's position is 32 days out of date.

Length 145 m; draft 8.5 m.

Type: Tanker. MMSI: 235076245.

Date/timePositionNaut miles runAvg speedWind from/ knotsBaromVisibWave heightAir tempDewpointWater temp
2018-Mar-18 19:02N 18°53' E 071°29'5213.4
2018-Mar-18 15:10N 18°52' E 072°24'213.8
2018-Mar-18 15:01N 18°51' E 072°26'  
2018-Mar-13 16:22N 18°50' E 072°47'1810.6
2018-Mar-13 14:40N 18°60' E 072°30'312.5
2018-Mar-13 14:24N 19°03' E 072°29'11 3.6
2018-Mar-13 11:24N 18°53' E 072°33'611.4
2018-Mar-13 10:53N 18°51' E 072°26'613.3
2018-Mar-13 10:26N 18°52' E 072°20'813.0
2018-Mar-13 09:47N 18°53' E 072°11'512.9
2018-Mar-13 09:22N 18°52' E 072°06'513.0
2018-Mar-13 08:58N 18°52' E 072°00'612.9
2018-Mar-13 08:30N 18°52' E 071°54'712.8
2018-Mar-13 07:58N 18°52' E 071°47'612.7
2018-Mar-13 07:30N 18°53' E 071°40'712.8
2018-Mar-13 06:57N 18°52' E 071°33'613.0
2018-Mar-13 06:30N 18°53' E 071°27'713.0
2018-Mar-13 05:59N 18°53' E 071°20'612.9
2018-Mar-13 05:30N 18°53' E 071°13'713.1
2018-Mar-13 04:58N 18°53' E 071°06'3013.2
2018-Mar-13 02:41N 18°48' E 070°34'  

Dump ship's entire track history